Time;durP1;ratioP1;P1;durP2;ratioP2;P2;SDS_P1;SDS_P2;PMS_P1;PMS_P2;Temp;Humidity;BMP_temperature;BMP_pressure;BME280_temperature;BME280_humidity;BME280_pressure;Samples;Min_cycle;Max_cycle;Signal;HPM_P1;HPM_P2
2023/01/12 00:01:18;;;;;;;8.32;2.17;;;14.70;96.80;;;;;;5055032;28;20041;-61
2023/01/12 00:03:43;;;;;;;7.80;1.75;;;14.20;96.70;;;;;;5055399;28;20049;-63
2023/01/12 00:06:10;;;;;;;4.85;1.40;;;;;;;;;;5050143;28;20033;-59
2023/01/12 00:08:37;;;;;;;8.07;2.15;;;;;;;;;;5047988;28;20037;-72
2023/01/12 00:11:03;;;;;;;7.88;2.05;;;;;;;;;;5034571;28;20041;-72
2023/01/12 00:13:29;;;;;;;6.55;1.60;;;;;;;;;;5034068;28;20096;-59
2023/01/12 00:18:41;;;;;;;9.23;2.17;;;14.30;96.70;;;;;;5034614;28;20045;-60
2023/01/12 00:21:08;;;;;;;7.65;1.73;;;;;;;;;;5040764;28;20041;-72
2023/01/12 00:23:34;;;;;;;8.25;1.83;;;;;;;;;;5034235;28;20072;-72
2023/01/12 00:26:00;;;;;;;8.15;2.17;;;;;;;;;;5034709;28;20447;-64
2023/01/12 00:28:26;;;;;;;9.73;2.25;;;;;;;;;;5035906;28;20467;-61
2023/01/12 00:30:52;;;;;;;8.80;2.28;;;14.20;96.70;;;;;;5039104;28;20511;-65
2023/01/12 00:33:19;;;;;;;9.00;2.47;;;14.30;96.70;;;;;;4998213;28;1199640;-61
2023/01/12 00:35:45;;;;;;;7.85;2.15;;;;;;;;;;5036116;28;20479;-65
2023/01/12 00:38:11;;;;;;;13.15;2.50;;;14.60;96.90;;;;;;5051049;28;20041;-60
2023/01/12 00:40:36;;;;;;;11.75;2.95;;;14.50;96.70;;;;;;5047684;28;20128;-64
2023/01/12 00:45:50;;;;;;;7.57;1.88;;;14.50;96.70;;;;;;5054813;28;20039;-60
2023/01/12 00:48:16;;;;;;;6.10;1.80;;;14.30;96.60;;;;;;5054781;28;20132;-59
2023/01/12 00:50:41;;;;;;;10.05;2.15;;;14.30;96.60;;;;;;5048522;28;20116;-59
2023/01/12 00:53:07;;;;;;;12.07;2.53;;;14.40;96.60;;;;;;5042058;28;20450;-59
2023/01/12 00:55:33;;;;;;;8.35;2.15;;;14.50;96.70;;;;;;5056774;28;20053;-62
2023/01/12 00:57:59;;;;;;;9.77;2.30;;;13.90;96.50;;;;;;5054195;28;20041;-62
2023/01/12 01:00:24;;;;;;;14.20;2.72;;;14.20;96.70;;;;;;5044765;28;20040;-63
2023/01/12 01:02:50;;;;;;;10.10;2.60;;;;;;;;;;5055064;28;20064;-60
2023/01/12 01:05:16;;;;;;;8.70;1.77;;;;;;;;;;5040331;28;20142;-63
2023/01/12 01:07:45;;;;;;;11.55;2.80;;;;;;;;;;5049402;28;20048;-68
2023/01/12 01:10:11;;;;;;;8.52;2.22;;;;;;;;;;5054590;28;20122;-68
2023/01/12 01:12:37;;;;;;;8.80;2.35;;;;;;;;;;5054308;28;20384;-64
2023/01/12 01:15:03;;;;;;;11.45;2.53;;;14.20;96.70;;;;;;5054086;28;20043;-65
2023/01/12 01:17:29;;;;;;;10.60;2.53;;;;;;;;;;5055219;28;20049;-59
2023/01/12 01:19:55;;;;;;;8.88;2.90;;;14.20;95.50;;;;;;5044620;28;20053;-69
2023/01/12 01:22:21;;;;;;;10.50;2.50;;;14.20;95.50;;;;;;5040014;28;20438;-67
2023/01/12 01:24:47;;;;;;;6.78;1.95;;;;;;;;;;5034196;28;20501;-73
2023/01/12 01:27:13;;;;;;;8.90;2.80;;;;;;;;;;5035029;28;20046;-65
2023/01/12 01:29:39;;;;;;;11.57;2.72;;;;;;;;;;5034691;28;20398;-67
2023/01/12 01:32:05;;;;;;;12.00;3.13;;;14.00;96.60;;;;;;5047600;28;20048;-67
2023/01/12 01:34:32;;;;;;;11.40;2.70;;;;;;;;;;5053250;28;20049;-73
2023/01/12 01:36:58;;;;;;;8.50;2.03;;;;;;;;;;5034776;28;20041;-60
2023/01/12 01:39:24;;;;;;;8.75;2.40;;;;;;;;;;5034050;28;20060;-58
2023/01/12 01:41:51;;;;;;;10.10;2.40;;;;;;;;;;5044607;28;20034;-59
2023/01/12 01:44:28;;;;;;;9.15;2.55;;;14.30;94.70;;;;;;5051599;28;20041;-59
2023/01/12 01:47:02;;;;;;;10.95;2.50;;;14.30;95.30;;;;;;5052466;28;20052;-58
2023/01/12 01:49:33;;;;;;;8.90;2.20;;;14.30;96.60;;;;;;5045708;28;20052;-69
2023/01/12 01:52:05;;;;;;;9.60;2.70;;;14.20;96.60;;;;;;5038576;28;20132;-61
2023/01/12 01:54:32;;;;;;;10.98;2.63;;;14.20;96.60;;;;;;5051101;28;20037;-62
2023/01/12 01:56:58;;;;;;;8.70;2.42;;;14.30;95.50;;;;;;5059121;28;20057;-61
2023/01/12 02:03:05;;;;;;;8.85;2.03;;;;;;;;;;5036359;28;20486;-72
2023/01/12 02:05:31;;;;;;;6.80;1.92;;;14.30;96.60;;;;;;5032879;28;20056;-61
2023/01/12 02:08:18;;;;;;;9.93;2.08;;;14.20;96.50;;;;;;5047427;28;20045;-69
2023/01/12 02:10:44;;;;;;;9.52;2.40;;;14.20;96.60;;;;;;5044071;28;20051;-69
2023/01/12 02:16:38;;;;;;;10.07;2.25;;;14.50;96.60;;;;;;5051451;28;20513;-68
2023/01/12 02:19:03;;;;;;;7.82;1.98;;;14.10;96.60;;;;;;5045663;28;20521;-62
2023/01/12 02:21:53;;;;;;;10.02;2.47;;;14.20;94.70;;;;;;5050174;28;20045;-75
2023/01/12 02:24:30;;;;;;;10.93;2.58;;;14.00;96.60;;;;;;5043504;28;20048;-68
2023/01/12 02:27:10;;;;;;;8.90;2.08;;;14.30;94.70;;;;;;5046471;28;20045;-68
2023/01/12 02:29:45;;;;;;;10.35;1.90;;;;;;;;;;5033358;28;20048;-64
2023/01/12 02:32:25;;;;;;;10.32;2.28;;;14.30;96.60;;;;;;5050128;28;20069;-60
2023/01/12 02:34:55;;;;;;;9.82;2.53;;;;;;;;;;5032435;28;20056;-74
2023/01/12 02:37:42;;;;;;;8.40;2.75;;;14.30;94.60;;;;;;5033097;28;20091;-74
2023/01/12 02:40:08;;;;;;;9.38;2.42;;;;;;;;;;5033614;28;20107;-71
2023/01/12 02:42:53;;;;;;;8.70;2.63;;;14.30;96.60;;;;;;5050923;28;20106;-62
2023/01/12 02:45:28;;;;;;;10.52;2.58;;;14.20;96.60;;;;;;5053669;28;20395;-70
2023/01/12 02:47:57;;;;;;;9.55;2.55;;;;;;;;;;5037653;28;20033;-74
2023/01/12 02:50:49;;;;;;;9.63;2.28;;;14.30;95.20;;;;;;5038383;28;20450;-70
2023/01/12 02:53:43;;;;;;;9.65;2.40;;;14.40;94.80;;;;;;5030665;28;20492;-68
2023/01/12 02:56:10;;;;;;;9.90;2.75;;;14.30;96.70;;;;;;5048601;28;20399;-70
2023/01/12 02:58:39;;;;;;;7.35;1.85;;;14.30;96.70;;;;;;5032998;28;20102;-68
2023/01/12 03:01:05;;;;;;;8.15;2.25;;;14.40;96.60;;;;;;5016525;28;20152;-59
2023/01/12 03:03:30;;;;;;;10.80;2.53;;;14.50;96.70;;;;;;5043232;28;20076;-59
2023/01/12 03:05:59;;;;;;;12.00;2.30;;;14.10;96.60;;;;;;5031882;28;20040;-64
2023/01/12 03:08:27;;;;;;;9.15;2.42;;;14.30;96.80;;;;;;5032377;28;20108;-61
2023/01/12 03:11:02;;;;;;;8.70;2.20;;;14.30;96.70;;;;;;5033162;28;20049;-62
2023/01/12 03:13:29;;;;;;;8.88;2.70;;;14.40;95.40;;;;;;5042441;28;20479;-62
2023/01/12 03:15:55;;;;;;;8.70;2.90;;;14.30;96.70;;;;;;5065807;28;20120;-59
2023/01/12 03:18:40;;;;;;;12.15;2.53;;;14.60;94.90;;;;;;5051461;28;20124;-58
2023/01/12 03:21:12;;;;;;;10.70;2.33;;;14.40;96.80;;;;;;5045685;28;20426;-68
2023/01/12 03:23:41;;;;;;;8.18;1.95;;;14.40;96.80;;;;;;5049130;28;20487;-59
2023/01/12 03:26:08;;;;;;;10.30;3.15;;;14.20;96.70;;;;;;5023164;28;20542;-74
2023/01/12 03:28:35;;;;;;;12.82;3.28;;;14.30;96.80;;;;;;5051919;28;20397;-59
2023/01/12 03:31:09;;;;;;;10.43;3.33;;;14.40;96.80;;;;;;5061159;28;20103;-61
2023/01/12 03:33:37;;;;;;;8.48;2.33;;;14.30;96.80;;;;;;5028062;28;20148;-70
2023/01/12 03:36:19;;;;;;;8.50;2.30;;;14.50;95.80;;;;;;5033684;28;20045;-59
2023/01/12 03:39:02;;;;;;;10.63;2.63;;;14.20;96.90;;;;;;5048538;28;20470;-68
2023/01/12 03:41:36;;;;;;;10.18;3.20;;;14.30;95.50;;;;;;5038039;28;20149;-62
2023/01/12 03:44:04;;;;;;;9.93;2.58;;;14.40;97.00;;;;;;5043071;28;20047;-70
2023/01/12 03:46:35;;;;;;;7.65;2.75;;;14.20;96.80;;;;;;5055062;28;20450;-70
2023/01/12 03:49:30;;;;;;;8.50;2.30;;;14.30;95.70;;;;;;5051848;28;20055;-59
2023/01/12 03:51:56;;;;;;;9.93;2.40;;;;;;;;;;5038429;28;20080;-70
2023/01/12 03:54:22;;;;;;;8.63;2.67;;;;;;;;;;5052664;28;20495;-71
2023/01/12 03:56:48;;;;;;;10.55;2.33;;;14.20;95.80;;;;;;5050758;28;20085;-60
2023/01/12 03:59:14;;;;;;;8.45;2.30;;;14.00;97.00;;;;;;5033561;28;20045;-69
2023/01/12 04:01:42;;;;;;;12.80;2.83;;;;;;;;;;5042919;28;20116;-70
2023/01/12 04:04:08;;;;;;;8.70;2.10;;;;;;;;;;5054559;28;20083;-70
2023/01/12 04:06:34;;;;;;;11.98;2.75;;;;;;;;;;5054022;28;20041;-71
2023/01/12 04:09:00;;;;;;;10.18;2.45;;;;;;;;;;5036346;28;20042;-68
2023/01/12 04:14:10;;;;;;;8.02;2.63;;;14.50;97.10;;;;;;5038192;28;20037;-68
2023/01/12 04:16:36;;;;;;;8.32;2.22;;;13.80;97.00;;;;;;5055719;28;20528;-69
2023/01/12 04:19:01;;;;;;;8.38;2.92;;;13.80;97.10;;;;;;5046709;28;20178;-69
2023/01/12 04:24:12;;;;;;;10.45;2.50;;;13.80;97.10;;;;;;5036294;28;20124;-75
2023/01/12 04:26:37;;;;;;;6.78;2.10;;;14.10;97.20;;;;;;5035744;28;20562;-61
2023/01/12 04:29:03;;;;;;;6.57;1.83;;;13.80;97.10;;;;;;5036758;28;20140;-69
2023/01/12 04:31:29;;;;;;;11.05;2.70;;;;;;;;;;5039390;28;20044;-68
2023/01/12 04:33:55;;;;;;;7.55;2.13;;;14.10;96.20;;;;;;5035887;28;20537;-69
2023/01/12 04:36:21;;;;;;;11.35;3.13;;;14.20;97.50;;;;;;5036687;28;20112;-63
2023/01/12 04:38:47;;;;;;;7.35;2.05;;;14.40;97.40;;;;;;5053279;28;20398;-68
2023/01/12 04:41:12;;;;;;;6.43;1.88;;;13.80;97.30;;;;;;5050379;28;20037;-63
2023/01/12 04:43:38;;;;;;;4.72;1.63;;;13.70;97.20;;;;;;5040166;28;20479;-68
2023/01/12 04:46:05;;;;;;;10.10;2.53;;;;;;;;;;5037455;28;20042;-64
2023/01/12 04:48:32;;;;;;;8.50;2.28;;;;;;;;;;5037801;28;20037;-75
2023/01/12 04:50:58;;;;;;;8.80;2.40;;;14.10;97.50;;;;;;5035555;28;20045;-69
2023/01/12 04:53:25;;;;;;;6.97;1.80;;;14.10;97.40;;;;;;5042202;28;20049;-69
2023/01/12 04:55:51;;;;;;;7.95;2.38;;;;;;;;;;5047658;28;20128;-68
2023/01/12 04:58:17;;;;;;;7.38;2.00;;;13.90;96.30;;;;;;5045846;28;20045;-69
2023/01/12 05:00:43;;;;;;;8.88;2.20;;;;;;;;;;5055575;28;20045;-69
2023/01/12 05:03:11;;;;;;;7.70;1.90;;;14.20;96.10;;;;;;5046720;28;20506;-71
2023/01/12 05:05:37;;;;;;;5.88;1.83;;;;;;;;;;5036350;28;20077;-69
2023/01/12 05:10:51;;;;;;;7.80;2.05;;;14.00;97.60;;;;;;5046423;28;20060;-69
2023/01/12 05:13:17;;;;;;;6.88;1.50;;;14.10;97.60;;;;;;5035129;28;20076;-61
2023/01/12 05:15:43;;;;;;;6.18;1.70;;;14.00;97.50;;;;;;5054628;28;20083;-59
2023/01/12 05:18:08;;;;;;;8.27;1.95;;;13.90;96.50;;;;;;5034787;28;20053;-68
2023/01/12 05:20:34;;;;;;;4.93;1.58;;;13.90;97.60;;;;;;5035282;28;20049;-61
2023/01/12 05:23:00;;;;;;;4.93;1.50;;;;;;;;;;5035584;28;20120;-74
2023/01/12 05:25:28;;;;;;;5.28;1.38;;;;;;;;;;5037939;28;20037;-75
2023/01/12 05:27:56;;;;;;;5.95;1.90;;;14.00;96.10;;;;;;5034987;28;20124;-71
2023/01/12 05:30:22;;;;;;;6.35;1.80;;;;;;;;;;5035665;28;20049;-71
2023/01/12 05:32:48;;;;;;;4.57;1.45;;;13.90;96.50;;;;;;5033002;28;20053;-69
2023/01/12 05:35:14;;;;;;;5.03;1.50;;;;;;;;;;5034247;28;20056;-65
2023/01/12 05:37:40;;;;;;;5.70;1.63;;;;;;;;;;5034977;28;20049;-75
2023/01/12 05:40:10;;;;;;;4.05;1.58;;;14.10;97.80;;;;;;5043125;28;20071;-68
2023/01/12 05:45:20;;;;;;;4.93;1.40;;;13.90;97.80;;;;;;5044176;28;20071;-66
2023/01/12 05:47:46;;;;;;;3.03;1.17;;;13.90;97.90;;;;;;5034087;28;20041;-67
2023/01/12 05:50:12;;;;;;;3.38;1.20;;;13.60;97.80;;;;;;5034947;28;20041;-68
2023/01/12 05:52:38;;;;;;;3.90;1.20;;;;;;;;;;5051427;28;20136;-69
2023/01/12 05:55:04;;;;;;;5.20;1.38;;;13.80;98.20;;;;;;5054197;28;20044;-63
2023/01/12 05:57:30;;;;;;;3.53;1.15;;;;;;;;;;5046634;28;20037;-73
2023/01/12 05:59:57;;;;;;;4.55;1.27;;;;;;;;;;5032078;28;20121;-66
2023/01/12 06:02:23;;;;;;;3.28;1.15;;;;;;;;;;5040995;28;20044;-71
2023/01/12 06:04:49;;;;;;;3.38;1.45;;;;;;;;;;5041573;28;20083;-65
2023/01/12 06:07:15;;;;;;;3.88;1.20;;;;;;;;;;5050649;28;20692;-63
2023/01/12 06:09:41;;;;;;;3.75;1.27;;;;;;;;;;5033995;28;20050;-69
2023/01/12 06:14:55;;;;;;;4.22;0.90;;;13.50;98.30;;;;;;5036427;28;20121;-59
2023/01/12 06:17:20;;;;;;;3.75;1.15;;;13.60;98.40;;;;;;5052912;28;20088;-59
2023/01/12 06:19:49;;;;;;;2.65;1.10;;;;;;;;;;5039459;28;20052;-75
2023/01/12 06:22:18;;;;;;;3.80;1.33;;;;;;;;;;5046049;28;20060;-71
2023/01/12 06:24:47;;;;;;;2.20;0.75;;;;;;;;;;5033168;28;20056;-75
2023/01/12 06:27:14;;;;;;;2.63;1.00;;;;;;;;;;5044454;28;20053;-61
2023/01/12 06:29:41;;;;;;;3.17;0.93;;;;;;;;;;5053013;28;20521;-69
2023/01/12 06:32:06;;;;;;;2.65;1.00;;;13.50;98.80;;;;;;5035404;28;20049;-67
2023/01/12 06:34:34;;;;;;;5.13;1.27;;;;;;;;;;5050944;28;20060;-65
2023/01/12 06:37:01;;;;;;;2.53;1.00;;;13.20;98.50;;;;;;5054387;28;20168;-66
2023/01/12 06:39:28;;;;;;;4.68;1.10;;;;;;;;;;5049011;28;20601;-59
2023/01/12 06:44:38;;;;;;;3.40;0.98;;;;;;;;;;5039446;28;20049;-68
2023/01/12 06:47:05;;;;;;;2.30;0.85;;;;;;;;;;5034890;28;20135;-64
2023/01/12 06:49:30;;;;;;;2.85;0.90;;;13.30;98.70;;;;;;5052271;28;20080;-67
2023/01/12 06:51:57;;;;;;;3.40;1.02;;;;;;;;;;5051045;28;21895;-59
2023/01/12 06:54:23;;;;;;;3.85;1.00;;;;;;;;;;5047110;28;20107;-59
2023/01/12 06:56:49;;;;;;;2.40;0.70;;;;;;;;;;5043150;28;20053;-58
2023/01/12 06:59:14;;;;;;;2.95;0.77;;;13.30;98.80;;;;;;5053110;28;20052;-59
2023/01/12 07:01:41;;;;;;;3.22;0.85;;;;;;;;;;5025249;28;20487;-60
2023/01/12 07:04:07;;;;;;;1.88;0.70;;;13.60;98.80;;;;;;5044858;28;20099;-59
2023/01/12 07:06:33;;;;;;;2.58;0.90;;;13.60;98.90;;;;;;5064500;28;20443;-61
2023/01/12 07:08:59;;;;;;;1.70;0.55;;;13.70;98.90;;;;;;5038785;28;20144;-59
2023/01/12 07:11:25;;;;;;;3.00;0.85;;;;;;;;;;5048222;28;20073;-74
2023/01/12 07:14:03;;;;;;;3.22;0.80;;;;;;;;;;5047407;28;20044;-74
2023/01/12 07:16:33;;;;;;;1.95;0.73;;;;;;;;;;5035352;28;20506;-74
2023/01/12 07:19:00;;;;;;;3.47;0.73;;;;;;;;;;5031743;28;20422;-74
2023/01/12 07:21:26;;;;;;;1.30;0.57;;;;;;;;;;5031351;28;20049;-74
2023/01/12 07:23:52;;;;;;;1.30;0.52;;;;;;;;;;5019280;28;20102;-73
2023/01/12 07:26:19;;;;;;;2.25;0.70;;;;;;;;;;5033010;28;20124;-59
2023/01/12 07:28:45;;;;;;;2.05;0.40;;;;;;;;;;5032208;28;20056;-75
2023/01/12 07:31:12;;;;;;;4.78;0.77;;;;;;;;;;5033221;28;20041;-72
2023/01/12 07:33:38;;;;;;;2.25;0.60;;;;;;;;;;5034778;28;20061;-58
2023/01/12 07:36:05;;;;;;;0.90;0.40;;;13.60;99.10;;;;;;5032133;28;20056;-58
2023/01/12 07:38:31;;;;;;;1.52;0.45;;;;;;;;;;5035398;28;20455;-59
2023/01/12 07:41:00;;;;;;;0.90;0.40;;;;;;;;;;5040479;28;20045;-74
2023/01/12 07:43:27;;;;;;;0.77;0.40;;;;;;;;;;5042259;28;20441;-59
2023/01/12 07:45:55;;;;;;;2.00;0.38;;;13.90;98.10;;;;;;5036724;28;20072;-59
2023/01/12 07:48:22;;;;;;;1.95;0.55;;;13.90;99.10;;;;;;5036261;28;20100;-59
2023/01/12 07:50:47;;;;;;;0.90;0.43;;;13.80;99.20;;;;;;5041534;28;20049;-58
2023/01/12 07:53:13;;;;;;;1.02;0.47;;;13.50;99.00;;;;;;5052443;28;20041;-58
2023/01/12 07:55:42;;;;;;;1.80;0.40;;;;;;;;;;5053141;28;20049;-59
2023/01/12 07:58:08;;;;;;;0.95;0.30;;;13.90;98.20;;;;;;5056891;28;20446;-59
2023/01/12 08:00:34;;;;;;;1.65;0.57;;;13.80;99.20;;;;;;5055079;28;20139;-58
2023/01/12 08:03:07;;;;;;;1.33;0.50;;;;;;;;;;5037507;28;20478;-59
2023/01/12 08:05:33;;;;;;;1.15;0.32;;;13.60;99.00;;;;;;5036297;28;20049;-58
2023/01/12 08:07:59;;;;;;;1.65;0.30;;;13.90;99.20;;;;;;5037506;28;20048;-58
2023/01/12 08:10:25;;;;;;;1.73;0.40;;;;;;;;;;5036255;28;20045;-58
2023/01/12 08:12:51;;;;;;;0.95;0.40;;;13.90;98.20;;;;;;5044817;28;20056;-59
2023/01/12 08:15:17;;;;;;;1.15;0.40;;;;;;;;;;5034355;28;20038;-75
2023/01/12 08:17:50;;;;;;;1.65;0.32;;;13.90;97.80;;;;;;5034840;28;20050;-58
2023/01/12 08:20:19;;;;;;;0.40;0.30;;;14.00;99.20;;;;;;5035764;28;20037;-58
2023/01/12 08:22:46;;;;;;;0.82;0.40;;;14.30;99.40;;;;;;5047385;28;20495;-59
2023/01/12 08:25:21;;;;;;;1.88;0.38;;;14.00;97.90;;;;;;5049136;28;20399;-59
2023/01/12 08:27:48;;;;;;;1.88;0.60;;;13.80;99.30;;;;;;5050781;28;20041;-58
2023/01/12 08:30:18;;;;;;;1.35;0.30;;;14.00;99.30;;;;;;5043999;28;20045;-58
2023/01/12 08:32:44;;;;;;;2.28;0.60;;;;;;;;;;5028953;28;20049;-58
2023/01/12 08:35:11;;;;;;;2.15;0.60;;;14.00;99.60;;;;;;5053507;28;20060;-61
2023/01/12 08:37:37;;;;;;;1.40;0.65;;;14.00;99.30;;;;;;5053050;28;20537;-57
2023/01/12 08:40:03;;;;;;;1.48;0.40;;;14.00;99.40;;;;;;5035975;28;20042;-58
2023/01/12 08:42:29;;;;;;;1.58;0.50;;;14.00;99.30;;;;;;5034508;28;20368;-69
2023/01/12 08:44:55;;;;;;;1.73;0.65;;;;;;;;;;5035705;28;20095;-59
2023/01/12 08:47:25;;;;;;;2.80;0.70;;;14.10;99.40;;;;;;5036656;28;20475;-62
2023/01/12 08:49:52;;;;;;;2.92;0.82;;;14.00;99.00;;;;;;5044818;28;20040;-58
2023/01/12 08:52:18;;;;;;;3.60;1.00;;;;;;;;;;5051074;28;20047;-58
2023/01/12 08:54:44;;;;;;;3.65;1.20;;;;;;;;;;5048927;28;20051;-59
2023/01/12 08:57:10;;;;;;;4.35;1.17;;;14.20;99.40;;;;;;5038181;28;20045;-60
2023/01/12 08:59:36;;;;;;;2.60;0.82;;;;;;;;;;5035221;28;20052;-59
2023/01/12 09:02:02;;;;;;;4.22;1.27;;;14.30;99.90;;;;;;5045081;28;20053;-59
2023/01/12 09:04:28;;;;;;;4.97;1.45;;;14.20;99.60;;;;;;5045071;28;20037;-59
2023/01/12 09:06:54;;;;;;;8.82;1.70;;;14.20;99.60;;;;;;5033776;28;20100;-59
2023/01/12 09:09:20;;;;;;;6.68;1.73;;;13.90;98.60;;;;;;5039317;28;20052;-59
2023/01/12 09:11:47;;;;;;;7.15;1.33;;;14.40;98.60;;;;;;5055443;28;20094;-59
2023/01/12 09:14:13;;;;;;;8.57;2.03;;;14.60;97.90;;;;;;5054217;28;20041;-59
2023/01/12 09:16:40;;;;;;;7.97;2.05;;;;;;;;;;5030205;28;20041;-59
2023/01/12 09:19:06;;;;;;;6.55;2.10;;;;;;;;;;5035248;28;20041;-59
2023/01/12 09:21:32;;;;;;;6.50;1.60;;;;;;;;;;5033868;28;20048;-58
2023/01/12 09:23:58;;;;;;;7.03;1.90;;;14.30;98.60;;;;;;5049838;28;20060;-61
2023/01/12 09:26:27;;;;;;;7.53;1.90;;;14.10;99.70;;;;;;5051426;28;20037;-59
2023/01/12 09:28:53;;;;;;;8.65;2.03;;;;;;;;;;5048148;28;20124;-59
2023/01/12 09:31:21;;;;;;;8.43;2.20;;;;;;;;;;5070199;28;20135;-60
2023/01/12 09:33:47;;;;;;;8.13;1.83;;;13.90;99.60;;;;;;5052647;28;20097;-66
2023/01/12 09:36:14;;;;;;;7.95;1.80;;;14.30;99.60;;;;;;5053591;28;20059;-59
2023/01/12 09:38:41;;;;;;;7.38;1.88;;;14.30;98.70;;;;;;5054331;28;20059;-59
2023/01/12 09:41:13;;;;;;;9.35;2.08;;;14.00;99.70;;;;;;5046636;28;20386;-64
2023/01/12 09:49:18;;;;;;;7.80;1.98;;;14.40;99.90;;;;;;5033822;28;20132;-58
2023/01/12 09:51:52;;;;;;;9.55;2.33;;;14.40;99.90;;;;;;5041297;28;20471;-60
2023/01/12 09:54:18;;;;;;;8.82;2.17;;;14.70;99.90;;;;;;5035536;28;20068;-65
2023/01/12 09:56:51;;;;;;;8.00;1.98;;;14.50;98.50;;;;;;5037418;28;20049;-60
2023/01/12 09:59:45;;;;;;;8.55;2.10;;;14.50;98.90;;;;;;5032977;28;20395;-58
2023/01/12 10:02:12;;;;;;;11.68;2.38;;;;;;;;;;5048787;28;20043;-58
2023/01/12 10:04:38;;;;;;;8.57;2.00;;;14.60;98.40;;;;;;5047563;28;20098;-59
2023/01/12 10:07:04;;;;;;;9.52;2.50;;;;;;;;;;5038098;28;20088;-76
2023/01/12 10:09:32;;;;;;;9.30;2.15;;;;;;;;;;5034436;28;20060;-76
2023/01/12 10:12:17;;;;;;;7.68;2.10;;;;;;;;;;5042191;28;20446;-77
2023/01/12 10:14:46;;;;;;;8.10;2.28;;;;;;;;;;5031772;28;20041;-59
2023/01/12 10:17:37;;;;;;;6.85;2.25;;;14.50;98.90;;;;;;5034237;28;20045;-62
2023/01/12 10:20:27;;;;;;;8.52;2.03;;;14.60;98.30;;;;;;5032966;28;20400;-67
2023/01/12 10:22:58;;;;;;;8.45;2.10;;;;;;;;;;5043727;28;20076;-58
2023/01/12 10:25:38;;;;;;;7.75;2.40;;;14.60;98.90;;;;;;5045108;28;20122;-68
2023/01/12 10:28:14;;;;;;;8.27;2.22;;;14.50;99.10;;;;;;5035681;28;20060;-62
2023/01/12 10:30:40;;;;;;;7.22;2.08;;;14.60;99.90;;;;;;5053047;28;20387;-66
2023/01/12 10:33:13;;;;;;;9.05;2.47;;;14.50;98.20;;;;;;5051649;28;20049;-68
2023/01/12 10:35:39;;;;;;;;;;;;;;;;;;5046572;28;20055;-59
2023/01/12 10:38:17;;;;;;;9.27;2.30;;;14.50;98.80;;;;;;5037278;28;19917;-59
2023/01/12 10:40:44;;;;;;;7.50;2.58;;;;;;;;;;5032511;28;20049;-74
2023/01/12 10:43:19;;;;;;;11.27;2.33;;;14.50;99.90;;;;;;5014865;28;20037;-60
2023/01/12 10:46:17;;;;;;;8.02;2.10;;;14.70;98.30;;;;;;5039694;28;20180;-68
2023/01/12 10:48:45;;;;;;;8.32;2.00;;;14.60;99.90;;;;;;5025674;28;20477;-60
2023/01/12 10:51:20;;;;;;;7.45;2.20;;;14.50;99.90;;;;;;5067236;28;20120;-61
2023/01/12 10:54:01;;;;;;;7.93;1.95;;;14.60;99.90;;;;;;5053611;28;20056;-68
2023/01/12 10:56:37;;;;;;;7.05;1.92;;;14.90;98.40;;;;;;5052016;28;20049;-68
2023/01/12 10:59:15;;;;;;;9.57;2.53;;;14.80;99.90;;;;;;5053323;28;20080;-58
2023/01/12 11:01:42;;;;;;;10.00;2.38;;;14.50;98.70;;;;;;5051995;28;20185;-57
2023/01/12 11:04:10;;;;;;;8.60;2.47;;;14.70;98.70;;;;;;5061453;28;20052;-61
2023/01/12 11:06:37;;;;;;;11.02;1.95;;;;;;;;;;5053575;28;20175;-58
2023/01/12 11:09:24;;;;;;;8.52;2.53;;;14.90;98.90;;;;;;5031750;28;20061;-63
2023/01/12 11:11:55;;;;;;;7.60;2.30;;;14.80;99.90;;;;;;5053407;28;20045;-61
2023/01/12 11:14:41;;;;;;;6.55;1.80;;;14.80;99.90;;;;;;5055987;28;20601;-60
2023/01/12 11:17:15;;;;;;;8.95;2.20;;;14.70;99.90;;;;;;5057151;28;20039;-76
2023/01/12 11:19:42;;;;;;;6.35;2.20;;;;;;;;;;5046694;28;20080;-59
2023/01/12 11:22:16;;;;;;;10.20;2.70;;;14.30;98.50;;;;;;5043452;28;20045;-60
2023/01/12 11:24:56;;;;;;;6.13;1.60;;;14.80;99.90;;;;;;5035956;28;20053;-68
2023/01/12 11:27:26;;;;;;;7.65;2.13;;;14.90;98.70;;;;;;5046165;28;20048;-68
2023/01/12 11:30:31;;;;;;;7.32;1.85;;;14.60;98.60;;;;;;5052614;28;20056;-67
2023/01/12 11:33:12;;;;;;;6.97;2.00;;;;;;;;;;5015016;28;20140;-60
2023/01/12 11:35:53;;;;;;;7.38;2.15;;;14.70;99.90;;;;;;5006551;28;20054;-63
2023/01/12 11:38:37;;;;;;;7.55;2.10;;;14.70;98.80;;;;;;5007752;28;20053;-59
2023/01/12 11:41:09;;;;;;;8.18;1.80;;;14.70;98.90;;;;;;5016951;28;20101;-61
2023/01/12 11:43:54;;;;;;;13.85;2.45;;;14.50;99.90;;;;;;4979346;28;20540;-69
2023/01/12 11:46:43;;;;;;;25.17;2.80;;;14.50;99.90;;;;;;4974239;28;20112;-71
2023/01/12 11:49:44;;;;;;;10.43;2.30;;;14.80;98.00;;;;;;4993719;28;20463;-75
2023/01/12 11:52:12;;;;;;;11.98;2.13;;;;;;;;;;4924768;29;20070;-58
2023/01/12 11:54:38;;;;;;;8.63;2.10;;;;;;;;;;4970634;28;20149;-59
2023/01/12 11:57:16;;;;;;;7.93;1.90;;;14.90;99.90;;;;;;4974629;28;20082;-58
2023/01/12 12:00:09;;;;;;;9.60;2.03;;;14.80;99.90;;;;;;4958343;28;20055;-60
2023/01/12 12:02:45;;;;;;;8.48;2.03;;;15.00;99.90;;;;;;4975499;28;20058;-58
2023/01/12 12:05:20;;;;;;;9.75;1.90;;;;;;;;;;4960287;28;20129;-61
2023/01/12 12:07:52;;;;;;;11.05;2.10;;;15.20;99.90;;;;;;5008222;28;20054;-58
2023/01/12 12:10:24;;;;;;;8.68;2.03;;;15.00;99.90;;;;;;5012697;28;20058;-68
2023/01/12 12:13:05;;;;;;;9.95;1.92;;;14.80;99.90;;;;;;5009221;28;20093;-69
2023/01/12 12:16:12;;;;;;;9.38;2.03;;;14.90;98.30;;;;;;4987654;28;20049;-74
2023/01/12 12:19:02;;;;;;;8.90;1.75;;;14.80;98.30;;;;;;4998375;28;20045;-74
2023/01/12 12:21:30;;;;;;;7.03;1.92;;;;;;;;;;5014235;28;20403;-73
2023/01/12 12:24:02;;;;;;;7.55;1.85;;;;;;;;;;5012207;28;20466;-71
2023/01/12 12:26:37;;;;;;;9.10;1.65;;;;;;;;;;4972002;28;20034;-75
2023/01/12 12:29:09;;;;;;;6.85;2.03;;;;;;;;;;5036634;28;20096;-69
2023/01/12 12:31:47;;;;;;;8.27;2.13;;;15.00;98.70;;;;;;5036303;28;20387;-60
2023/01/12 12:34:16;;;;;;;8.00;1.70;;;15.30;99.90;;;;;;5052826;28;20053;-68
2023/01/12 12:36:57;;;;;;;9.93;2.65;;;14.70;98.10;;;;;;5055393;28;20049;-64
2023/01/12 12:39:41;;;;;;;8.27;1.77;;;15.10;99.00;;;;;;5055944;28;20055;-62
2023/01/12 12:45:54;;;;;;;7.20;1.67;;;15.00;98.70;;;;;;4955539;28;20051;-69
2023/01/12 12:48:32;;;;;;;5.75;1.75;;;15.00;98.00;;;;;;4977798;28;20118;-73
2023/01/12 12:51:07;;;;;;;7.55;2.15;;;15.00;98.20;;;;;;4958280;28;20078;-66
2023/01/12 12:53:44;;;;;;;8.90;1.55;;;15.20;99.90;;;;;;4973953;28;20448;-68
2023/01/12 12:56:11;;;;;;;8.98;2.33;;;15.10;99.20;;;;;;4957053;28;20061;-58
2023/01/12 12:58:42;;;;;;;7.35;1.70;;;;;;;;;;4977559;28;20046;-72
2023/01/12 13:04:20;;;;;;;7.50;1.40;;;;;;;;;;4972928;28;20492;-69
2023/01/12 13:06:47;;;;;;;8.93;2.05;;;15.10;99.90;;;;;;4959056;28;20057;-67
2023/01/12 13:09:15;;;;;;;7.75;1.50;;;14.80;98.20;;;;;;4973826;28;20047;-60
2023/01/12 13:11:52;;;;;;;7.28;1.90;;;15.00;98.20;;;;;;4973430;28;20450;-70
2023/01/12 13:14:31;;;;;;;7.47;1.60;;;15.00;99.90;;;;;;4974016;28;20523;-71
2023/01/12 13:17:00;;;;;;;9.93;2.25;;;14.90;99.90;;;;;;4973761;28;20047;-69
2023/01/12 13:19:43;;;;;;;8.95;2.10;;;15.00;99.90;;;;;;4956773;28;20150;-69
2023/01/12 13:22:36;;;;;;;6.82;2.05;;;15.20;99.90;;;;;;5053234;28;20091;-71
2023/01/12 13:25:19;;;;;;;7.95;1.55;;;15.20;99.90;;;;;;5055207;28;20105;-64
2023/01/12 13:28:00;;;;;;;22.90;3.20;;;15.00;99.90;;;;;;5034446;28;20495;-70
2023/01/12 13:30:28;;;;;;;11.00;1.80;;;15.20;99.20;;;;;;5033860;28;20041;-70
2023/01/12 13:32:58;;;;;;;16.13;2.25;;;15.10;99.90;;;;;;5037859;28;20067;-75
2023/01/12 13:35:31;;;;;;;6.78;1.70;;;15.20;98.90;;;;;;5049372;28;20107;-76
2023/01/12 13:38:18;;;;;;;14.10;2.00;;;15.20;98.90;;;;;;5026413;28;20789;-70
2023/01/12 13:40:44;;;;;;;8.13;2.15;;;15.20;99.90;;;;;;5034204;28;20057;-71
2023/01/12 13:43:21;;;;;;;8.13;1.70;;;15.00;99.90;;;;;;5047518;28;20124;-71
2023/01/12 13:46:05;;;;;;;8.75;2.15;;;15.20;99.90;;;;;;5053357;28;20036;-69
2023/01/12 13:48:34;;;;;;;7.95;1.92;;;15.10;99.90;;;;;;5035564;28;20059;-70
2023/01/12 13:51:22;;;;;;;7.15;1.77;;;15.00;99.90;;;;;;5047606;28;20049;-70
2023/01/12 13:53:58;;;;;;;9.20;2.25;;;15.00;98.40;;;;;;5053832;28;20041;-70
2023/01/12 13:56:24;;;;;;;6.93;2.38;;;15.10;99.90;;;;;;5052560;28;20041;-70
2023/01/12 13:58:50;;;;;;;9.57;1.88;;;15.10;99.90;;;;;;5053078;28;20079;-69
2023/01/12 14:01:31;;;;;;;10.27;2.10;;;15.00;98.50;;;;;;5037594;28;20051;-71
2023/01/12 14:04:20;;;;;;;9.70;2.50;;;15.00;98.50;;;;;;5048826;28;20048;-70
2023/01/12 14:06:52;;;;;;;10.63;2.08;;;15.20;99.90;;;;;;5040648;28;20057;-72
2023/01/12 14:09:23;;;;;;;7.43;1.75;;;14.80;99.90;;;;;;5034283;28;20061;-70
2023/01/12 14:12:08;;;;;;;11.95;2.53;;;;;;;;;;5034553;28;20043;-71
2023/01/12 14:17:48;;;;;;;9.43;1.80;;;;;;;;;;5054751;28;20384;-70
2023/01/12 14:20:24;;;;;;;9.30;2.30;;;15.20;98.50;;;;;;5050717;28;20064;-71
2023/01/12 14:23:10;;;;;;;11.18;3.00;;;15.30;99.20;;;;;;5034539;28;20407;-70
2023/01/12 14:25:36;;;;;;;15.80;2.55;;;;;;;;;;5032885;28;20085;-70